sensor_id;sensor_type;location;lat;lon;timestamp;temperature;humidity
9915;DHT22;4996;48.746;9.174;2023-11-21T00:02:18;9.90;99.90
9915;DHT22;4996;48.746;9.174;2023-11-21T00:04:43;9.90;99.90
9915;DHT22;4996;48.746;9.174;2023-11-21T00:07:09;9.90;99.90
9915;DHT22;4996;48.746;9.174;2023-11-21T00:09:34;9.80;99.90
9915;DHT22;4996;48.746;9.174;2023-11-21T00:12:02;9.80;99.90
9915;DHT22;4996;48.746;9.174;2023-11-21T00:14:27;9.80;99.90
9915;DHT22;4996;48.746;9.174;2023-11-21T00:16:53;9.80;99.90
9915;DHT22;4996;48.746;9.174;2023-11-21T00:19:19;9.80;99.90
9915;DHT22;4996;48.746;9.174;2023-11-21T00:21:45;9.70;99.90
9915;DHT22;4996;48.746;9.174;2023-11-21T00:24:11;9.80;99.90
9915;DHT22;4996;48.746;9.174;2023-11-21T00:26:39;9.80;99.90
9915;DHT22;4996;48.746;9.174;2023-11-21T00:29:05;9.80;99.90
9915;DHT22;4996;48.746;9.174;2023-11-21T00:31:34;9.80;99.90
9915;DHT22;4996;48.746;9.174;2023-11-21T00:34:02;9.80;99.90
9915;DHT22;4996;48.746;9.174;2023-11-21T00:36:29;9.80;99.90
9915;DHT22;4996;48.746;9.174;2023-11-21T00:38:54;9.70;99.90
9915;DHT22;4996;48.746;9.174;2023-11-21T00:41:21;9.70;99.90
9915;DHT22;4996;48.746;9.174;2023-11-21T00:43:46;9.80;99.90
9915;DHT22;4996;48.746;9.174;2023-11-21T00:46:12;9.70;99.90
9915;DHT22;4996;48.746;9.174;2023-11-21T00:48:37;9.70;99.90
9915;DHT22;4996;48.746;9.174;2023-11-21T00:51:03;9.70;99.90
9915;DHT22;4996;48.746;9.174;2023-11-21T00:53:28;9.80;99.90
9915;DHT22;4996;48.746;9.174;2023-11-21T00:55:54;9.80;99.90
9915;DHT22;4996;48.746;9.174;2023-11-21T00:58:25;9.80;99.90
9915;DHT22;4996;48.746;9.174;2023-11-21T01:00:51;9.80;99.90
9915;DHT22;4996;48.746;9.174;2023-11-21T01:03:16;9.80;99.90
9915;DHT22;4996;48.746;9.174;2023-11-21T01:05:42;9.70;99.90
9915;DHT22;4996;48.746;9.174;2023-11-21T01:08:07;9.70;99.90
9915;DHT22;4996;48.746;9.174;2023-11-21T01:10:33;9.70;99.90
9915;DHT22;4996;48.746;9.174;2023-11-21T01:13:01;9.60;99.90
9915;DHT22;4996;48.746;9.174;2023-11-21T01:15:29;9.50;99.90
9915;DHT22;4996;48.746;9.174;2023-11-21T01:17:56;9.50;99.90
9915;DHT22;4996;48.746;9.174;2023-11-21T01:20:21;9.60;99.90
9915;DHT22;4996;48.746;9.174;2023-11-21T01:22:47;9.50;99.90
9915;DHT22;4996;48.746;9.174;2023-11-21T01:25:14;9.40;99.90
9915;DHT22;4996;48.746;9.174;2023-11-21T01:27:41;9.30;99.90
9915;DHT22;4996;48.746;9.174;2023-11-21T01:30:08;9.40;99.90
9915;DHT22;4996;48.746;9.174;2023-11-21T01:32:36;9.50;99.90
9915;DHT22;4996;48.746;9.174;2023-11-21T01:35:02;9.40;99.90
9915;DHT22;4996;48.746;9.174;2023-11-21T01:37:27;9.40;99.90
9915;DHT22;4996;48.746;9.174;2023-11-21T01:39:54;9.50;99.90
9915;DHT22;4996;48.746;9.174;2023-11-21T01:42:20;9.60;99.90
9915;DHT22;4996;48.746;9.174;2023-11-21T01:44:46;9.60;99.90
9915;DHT22;4996;48.746;9.174;2023-11-21T01:47:12;9.50;99.90
9915;DHT22;4996;48.746;9.174;2023-11-21T01:49:38;9.60;99.90
9915;DHT22;4996;48.746;9.174;2023-11-21T01:52:04;9.70;99.90
9915;DHT22;4996;48.746;9.174;2023-11-21T01:54:31;9.70;99.90
9915;DHT22;4996;48.746;9.174;2023-11-21T01:56:58;9.80;99.90
9915;DHT22;4996;48.746;9.174;2023-11-21T01:59:32;9.80;99.90
9915;DHT22;4996;48.746;9.174;2023-11-21T02:01:59;9.70;99.90
9915;DHT22;4996;48.746;9.174;2023-11-21T02:04:25;9.70;99.90
9915;DHT22;4996;48.746;9.174;2023-11-21T02:06:50;9.70;99.90
9915;DHT22;4996;48.746;9.174;2023-11-21T02:09:16;9.80;99.90
9915;DHT22;4996;48.746;9.174;2023-11-21T02:11:43;9.80;99.90
9915;DHT22;4996;48.746;9.174;2023-11-21T02:14:09;9.80;99.90
9915;DHT22;4996;48.746;9.174;2023-11-21T02:16:35;9.80;99.90
9915;DHT22;4996;48.746;9.174;2023-11-21T02:19:03;9.80;99.90
9915;DHT22;4996;48.746;9.174;2023-11-21T02:21:34;9.80;99.90
9915;DHT22;4996;48.746;9.174;2023-11-21T02:24:01;9.80;99.90
9915;DHT22;4996;48.746;9.174;2023-11-21T02:26:27;9.80;99.90
9915;DHT22;4996;48.746;9.174;2023-11-21T02:28:52;9.90;99.90
9915;DHT22;4996;48.746;9.174;2023-11-21T02:31:18;9.90;99.90
9915;DHT22;4996;48.746;9.174;2023-11-21T02:33:44;10.00;99.90
9915;DHT22;4996;48.746;9.174;2023-11-21T02:36:09;10.00;99.90
9915;DHT22;4996;48.746;9.174;2023-11-21T02:38:35;10.00;99.90
9915;DHT22;4996;48.746;9.174;2023-11-21T02:41:00;10.00;99.90
9915;DHT22;4996;48.746;9.174;2023-11-21T02:43:26;9.90;99.90
9915;DHT22;4996;48.746;9.174;2023-11-21T02:45:51;9.80;99.90
9915;DHT22;4996;48.746;9.174;2023-11-21T02:48:17;9.90;99.90
9915;DHT22;4996;48.746;9.174;2023-11-21T02:50:43;9.80;99.90
9915;DHT22;4996;48.746;9.174;2023-11-21T02:53:09;9.80;99.90
9915;DHT22;4996;48.746;9.174;2023-11-21T02:55:36;9.70;99.90
9915;DHT22;4996;48.746;9.174;2023-11-21T02:58:02;9.70;99.90
9915;DHT22;4996;48.746;9.174;2023-11-21T03:00:29;9.70;99.90
9915;DHT22;4996;48.746;9.174;2023-11-21T03:02:55;9.60;99.90
9915;DHT22;4996;48.746;9.174;2023-11-21T03:05:21;9.50;99.90
9915;DHT22;4996;48.746;9.174;2023-11-21T03:07:48;9.40;99.90
9915;DHT22;4996;48.746;9.174;2023-11-21T03:10:13;9.50;99.90
9915;DHT22;4996;48.746;9.174;2023-11-21T03:12:39;9.60;99.90
9915;DHT22;4996;48.746;9.174;2023-11-21T03:15:06;9.60;99.90
9915;DHT22;4996;48.746;9.174;2023-11-21T03:17:32;9.70;99.90
9915;DHT22;4996;48.746;9.174;2023-11-21T03:20:00;9.60;99.90
9915;DHT22;4996;48.746;9.174;2023-11-21T03:22:25;9.70;99.90
9915;DHT22;4996;48.746;9.174;2023-11-21T03:24:52;9.70;99.90
9915;DHT22;4996;48.746;9.174;2023-11-21T03:27:18;9.60;99.90
9915;DHT22;4996;48.746;9.174;2023-11-21T03:29:44;9.70;99.90
9915;DHT22;4996;48.746;9.174;2023-11-21T03:32:10;9.70;99.90
9915;DHT22;4996;48.746;9.174;2023-11-21T03:34:53;9.60;99.90
9915;DHT22;4996;48.746;9.174;2023-11-21T03:37:20;9.60;99.90
9915;DHT22;4996;48.746;9.174;2023-11-21T03:39:46;9.60;99.90
9915;DHT22;4996;48.746;9.174;2023-11-21T03:42:12;9.70;99.90
9915;DHT22;4996;48.746;9.174;2023-11-21T03:44:38;9.80;99.90
9915;DHT22;4996;48.746;9.174;2023-11-21T03:47:03;9.80;99.90
9915;DHT22;4996;48.746;9.174;2023-11-21T03:49:29;9.80;99.90
9915;DHT22;4996;48.746;9.174;2023-11-21T03:51:55;9.70;99.90
9915;DHT22;4996;48.746;9.174;2023-11-21T03:54:21;9.70;99.90
9915;DHT22;4996;48.746;9.174;2023-11-21T03:56:46;9.70;99.90
9915;DHT22;4996;48.746;9.174;2023-11-21T03:59:12;9.50;99.90
9915;DHT22;4996;48.746;9.174;2023-11-21T04:01:37;9.60;99.90
9915;DHT22;4996;48.746;9.174;2023-11-21T04:04:03;9.70;99.90
9915;DHT22;4996;48.746;9.174;2023-11-21T04:06:30;9.70;99.90
9915;DHT22;4996;48.746;9.174;2023-11-21T04:08:58;9.50;99.90
9915;DHT22;4996;48.746;9.174;2023-11-21T04:11:23;9.50;99.90
9915;DHT22;4996;48.746;9.174;2023-11-21T04:13:50;9.30;99.90
9915;DHT22;4996;48.746;9.174;2023-11-21T04:16:15;9.30;99.90
9915;DHT22;4996;48.746;9.174;2023-11-21T04:18:41;9.30;99.90
9915;DHT22;4996;48.746;9.174;2023-11-21T04:21:07;9.40;99.90
9915;DHT22;4996;48.746;9.174;2023-11-21T04:23:33;9.50;99.90
9915;DHT22;4996;48.746;9.174;2023-11-21T04:25:59;9.60;99.90
9915;DHT22;4996;48.746;9.174;2023-11-21T04:28:25;9.70;99.90
9915;DHT22;4996;48.746;9.174;2023-11-21T04:30:50;9.70;99.90
9915;DHT22;4996;48.746;9.174;2023-11-21T04:33:16;9.60;99.90
9915;DHT22;4996;48.746;9.174;2023-11-21T04:35:42;9.60;99.90
9915;DHT22;4996;48.746;9.174;2023-11-21T04:38:07;9.60;99.90
9915;DHT22;4996;48.746;9.174;2023-11-21T04:40:33;9.70;99.90
9915;DHT22;4996;48.746;9.174;2023-11-21T04:42:58;9.70;99.90
9915;DHT22;4996;48.746;9.174;2023-11-21T04:45:24;9.70;99.90
9915;DHT22;4996;48.746;9.174;2023-11-21T04:47:50;9.60;99.90
9915;DHT22;4996;48.746;9.174;2023-11-21T04:50:15;9.50;99.90
9915;DHT22;4996;48.746;9.174;2023-11-21T04:52:41;9.60;99.90
9915;DHT22;4996;48.746;9.174;2023-11-21T04:55:06;9.60;99.90
9915;DHT22;4996;48.746;9.174;2023-11-21T04:57:35;9.50;99.90
9915;DHT22;4996;48.746;9.174;2023-11-21T05:00:01;9.30;99.90
9915;DHT22;4996;48.746;9.174;2023-11-21T05:02:31;9.40;99.90
9915;DHT22;4996;48.746;9.174;2023-11-21T05:04:56;9.40;99.90
9915;DHT22;4996;48.746;9.174;2023-11-21T05:07:22;9.40;99.90
9915;DHT22;4996;48.746;9.174;2023-11-21T05:09:48;9.50;99.90
9915;DHT22;4996;48.746;9.174;2023-11-21T05:12:13;9.50;99.90
9915;DHT22;4996;48.746;9.174;2023-11-21T05:14:40;9.50;99.90
9915;DHT22;4996;48.746;9.174;2023-11-21T05:17:05;9.50;99.90
9915;DHT22;4996;48.746;9.174;2023-11-21T05:19:31;9.50;99.90
9915;DHT22;4996;48.746;9.174;2023-11-21T05:21:58;9.50;99.90
9915;DHT22;4996;48.746;9.174;2023-11-21T05:24:24;9.50;99.90
9915;DHT22;4996;48.746;9.174;2023-11-21T05:26:50;9.40;99.90
9915;DHT22;4996;48.746;9.174;2023-11-21T05:29:15;9.40;99.90
9915;DHT22;4996;48.746;9.174;2023-11-21T05:31:41;9.40;99.90
9915;DHT22;4996;48.746;9.174;2023-11-21T05:34:06;9.30;99.90
9915;DHT22;4996;48.746;9.174;2023-11-21T05:36:32;9.30;99.90
9915;DHT22;4996;48.746;9.174;2023-11-21T05:38:57;9.30;99.90
9915;DHT22;4996;48.746;9.174;2023-11-21T05:41:23;9.30;99.90
9915;DHT22;4996;48.746;9.174;2023-11-21T05:43:48;9.30;99.90
9915;DHT22;4996;48.746;9.174;2023-11-21T05:46:14;9.30;99.90
9915;DHT22;4996;48.746;9.174;2023-11-21T05:48:39;9.20;99.90
9915;DHT22;4996;48.746;9.174;2023-11-21T05:51:06;9.20;99.90
9915;DHT22;4996;48.746;9.174;2023-11-21T05:53:32;9.30;99.90
9915;DHT22;4996;48.746;9.174;2023-11-21T05:55:57;9.30;99.90
9915;DHT22;4996;48.746;9.174;2023-11-21T05:58:23;9.30;99.90
9915;DHT22;4996;48.746;9.174;2023-11-21T06:00:49;9.20;99.90
9915;DHT22;4996;48.746;9.174;2023-11-21T06:03:14;9.20;99.90
9915;DHT22;4996;48.746;9.174;2023-11-21T06:05:40;9.20;99.90
9915;DHT22;4996;48.746;9.174;2023-11-21T06:08:05;9.30;99.90
9915;DHT22;4996;48.746;9.174;2023-11-21T06:10:32;9.20;99.90
9915;DHT22;4996;48.746;9.174;2023-11-21T06:12:58;9.30;99.90
9915;DHT22;4996;48.746;9.174;2023-11-21T06:15:23;9.20;99.90
9915;DHT22;4996;48.746;9.174;2023-11-21T06:17:49;9.20;99.90
9915;DHT22;4996;48.746;9.174;2023-11-21T06:20:18;9.30;99.90
9915;DHT22;4996;48.746;9.174;2023-11-21T06:22:45;9.30;99.90
9915;DHT22;4996;48.746;9.174;2023-11-21T06:25:12;9.40;99.90
9915;DHT22;4996;48.746;9.174;2023-11-21T06:27:46;9.40;99.90
9915;DHT22;4996;48.746;9.174;2023-11-21T06:30:12;9.40;99.90
9915;DHT22;4996;48.746;9.174;2023-11-21T06:32:39;9.40;99.90
9915;DHT22;4996;48.746;9.174;2023-11-21T06:35:06;9.40;99.90
9915;DHT22;4996;48.746;9.174;2023-11-21T06:37:32;9.40;99.90
9915;DHT22;4996;48.746;9.174;2023-11-21T06:39:58;9.50;99.90
9915;DHT22;4996;48.746;9.174;2023-11-21T06:42:24;9.50;99.90
9915;DHT22;4996;48.746;9.174;2023-11-21T06:44:50;9.50;99.90
9915;DHT22;4996;48.746;9.174;2023-11-21T06:47:19;9.50;99.90
9915;DHT22;4996;48.746;9.174;2023-11-21T06:49:50;9.50;99.90
9915;DHT22;4996;48.746;9.174;2023-11-21T06:52:16;9.60;99.90
9915;DHT22;4996;48.746;9.174;2023-11-21T06:54:42;9.50;99.90
9915;DHT22;4996;48.746;9.174;2023-11-21T06:57:07;9.50;99.90
9915;DHT22;4996;48.746;9.174;2023-11-21T06:59:33;9.50;99.90
9915;DHT22;4996;48.746;9.174;2023-11-21T07:01:59;9.60;99.90
9915;DHT22;4996;48.746;9.174;2023-11-21T07:04:24;9.60;99.90
9915;DHT22;4996;48.746;9.174;2023-11-21T07:06:56;9.70;99.90
9915;DHT22;4996;48.746;9.174;2023-11-21T07:09:21;9.70;99.90
9915;DHT22;4996;48.746;9.174;2023-11-21T07:11:48;9.80;99.90
9915;DHT22;4996;48.746;9.174;2023-11-21T07:14:15;9.70;99.90
9915;DHT22;4996;48.746;9.174;2023-11-21T07:16:40;9.80;99.90
9915;DHT22;4996;48.746;9.174;2023-11-21T07:19:06;9.70;99.90
9915;DHT22;4996;48.746;9.174;2023-11-21T07:21:35;9.70;99.90
9915;DHT22;4996;48.746;9.174;2023-11-21T07:24:02;9.70;99.90
9915;DHT22;4996;48.746;9.174;2023-11-21T07:26:28;9.60;99.90
9915;DHT22;4996;48.746;9.174;2023-11-21T07:28:54;9.70;99.90
9915;DHT22;4996;48.746;9.174;2023-11-21T07:31:19;9.70;99.90
9915;DHT22;4996;48.746;9.174;2023-11-21T07:33:46;9.70;99.90
9915;DHT22;4996;48.746;9.174;2023-11-21T07:36:15;9.80;99.90
9915;DHT22;4996;48.746;9.174;2023-11-21T07:38:42;9.80;99.90
9915;DHT22;4996;48.746;9.174;2023-11-21T07:41:08;9.80;99.90
9915;DHT22;4996;48.746;9.174;2023-11-21T07:43:35;9.90;99.90
9915;DHT22;4996;48.746;9.174;2023-11-21T07:46:04;9.80;99.90
9915;DHT22;4996;48.746;9.174;2023-11-21T07:48:30;9.80;99.90
9915;DHT22;4996;48.746;9.174;2023-11-21T07:50:57;9.80;99.90
9915;DHT22;4996;48.746;9.174;2023-11-21T07:53:24;9.80;99.90
9915;DHT22;4996;48.746;9.174;2023-11-21T07:55:51;9.80;99.90
9915;DHT22;4996;48.746;9.174;2023-11-21T07:58:16;9.80;99.90
9915;DHT22;4996;48.746;9.174;2023-11-21T08:00:41;9.80;99.90
9915;DHT22;4996;48.746;9.174;2023-11-21T08:03:07;9.80;99.90
9915;DHT22;4996;48.746;9.174;2023-11-21T08:05:33;9.90;99.90
9915;DHT22;4996;48.746;9.174;2023-11-21T08:07:58;9.80;99.90
9915;DHT22;4996;48.746;9.174;2023-11-21T08:10:24;9.90;99.90
9915;DHT22;4996;48.746;9.174;2023-11-21T08:12:50;9.90;99.90
9915;DHT22;4996;48.746;9.174;2023-11-21T08:15:16;9.80;99.90
9915;DHT22;4996;48.746;9.174;2023-11-21T08:17:42;9.70;99.90
9915;DHT22;4996;48.746;9.174;2023-11-21T08:20:08;9.70;99.90
9915;DHT22;4996;48.746;9.174;2023-11-21T08:22:36;9.80;99.90
9915;DHT22;4996;48.746;9.174;2023-11-21T08:25:02;9.80;99.90
9915;DHT22;4996;48.746;9.174;2023-11-21T08:27:29;9.90;99.90
9915;DHT22;4996;48.746;9.174;2023-11-21T08:29:55;9.90;99.90
9915;DHT22;4996;48.746;9.174;2023-11-21T08:32:22;9.90;99.90
9915;DHT22;4996;48.746;9.174;2023-11-21T08:34:47;9.90;99.90
9915;DHT22;4996;48.746;9.174;2023-11-21T08:37:16;9.80;99.90
9915;DHT22;4996;48.746;9.174;2023-11-21T08:39:43;9.80;99.90
9915;DHT22;4996;48.746;9.174;2023-11-21T08:42:09;9.70;99.90
9915;DHT22;4996;48.746;9.174;2023-11-21T08:44:34;9.80;99.90
9915;DHT22;4996;48.746;9.174;2023-11-21T08:47:00;9.80;99.90
9915;DHT22;4996;48.746;9.174;2023-11-21T08:49:25;9.70;99.90
9915;DHT22;4996;48.746;9.174;2023-11-21T08:51:53;9.80;99.90
9915;DHT22;4996;48.746;9.174;2023-11-21T08:54:20;10.00;99.90
9915;DHT22;4996;48.746;9.174;2023-11-21T08:56:46;10.00;99.90
9915;DHT22;4996;48.746;9.174;2023-11-21T08:59:12;10.20;99.90
9915;DHT22;4996;48.746;9.174;2023-11-21T09:01:40;10.30;99.90
9915;DHT22;4996;48.746;9.174;2023-11-21T09:04:06;10.40;99.90
9915;DHT22;4996;48.746;9.174;2023-11-21T09:06:31;10.50;99.90
9915;DHT22;4996;48.746;9.174;2023-11-21T09:08:57;10.50;99.90
9915;DHT22;4996;48.746;9.174;2023-11-21T09:11:23;10.60;99.90
9915;DHT22;4996;48.746;9.174;2023-11-21T09:13:50;10.70;99.90
9915;DHT22;4996;48.746;9.174;2023-11-21T09:16:16;10.80;99.90
9915;DHT22;4996;48.746;9.174;2023-11-21T09:18:42;11.10;99.90
9915;DHT22;4996;48.746;9.174;2023-11-21T09:21:08;11.30;99.90
9915;DHT22;4996;48.746;9.174;2023-11-21T09:23:34;11.70;99.90
9915;DHT22;4996;48.746;9.174;2023-11-21T09:26:00;11.70;99.90
9915;DHT22;4996;48.746;9.174;2023-11-21T09:28:26;12.00;99.90
9915;DHT22;4996;48.746;9.174;2023-11-21T09:30:53;12.30;99.90
9915;DHT22;4996;48.746;9.174;2023-11-21T09:33:18;12.40;99.90
9915;DHT22;4996;48.746;9.174;2023-11-21T09:35:44;12.50;99.90
9915;DHT22;4996;48.746;9.174;2023-11-21T09:38:10;12.40;99.90
9915;DHT22;4996;48.746;9.174;2023-11-21T09:40:36;12.50;99.90
9915;DHT22;4996;48.746;9.174;2023-11-21T09:43:09;12.20;99.90
9915;DHT22;4996;48.746;9.174;2023-11-21T09:45:48;12.20;99.90
9915;DHT22;4996;48.746;9.174;2023-11-21T09:48:20;12.20;99.90
9915;DHT22;4996;48.746;9.174;2023-11-21T09:50:47;12.20;99.90
9915;DHT22;4996;48.746;9.174;2023-11-21T09:55:42;12.00;99.90
9915;DHT22;4996;48.746;9.174;2023-11-21T09:58:10;12.00;99.90
9915;DHT22;4996;48.746;9.174;2023-11-21T10:00:40;11.90;99.90
9915;DHT22;4996;48.746;9.174;2023-11-21T10:03:06;11.60;99.90
9915;DHT22;4996;48.746;9.174;2023-11-21T10:05:32;11.30;99.90
9915;DHT22;4996;48.746;9.174;2023-11-21T10:08:00;11.30;99.90
9915;DHT22;4996;48.746;9.174;2023-11-21T10:10:27;11.60;99.90
9915;DHT22;4996;48.746;9.174;2023-11-21T10:12:56;11.30;99.90
9915;DHT22;4996;48.746;9.174;2023-11-21T10:15:23;11.40;99.90
9915;DHT22;4996;48.746;9.174;2023-11-21T10:17:50;11.40;99.90
9915;DHT22;4996;48.746;9.174;2023-11-21T10:20:22;11.20;99.90
9915;DHT22;4996;48.746;9.174;2023-11-21T10:22:49;11.30;99.90
9915;DHT22;4996;48.746;9.174;2023-11-21T10:25:15;11.40;99.90
9915;DHT22;4996;48.746;9.174;2023-11-21T10:27:41;11.50;99.90
9915;DHT22;4996;48.746;9.174;2023-11-21T10:30:09;11.50;99.90
9915;DHT22;4996;48.746;9.174;2023-11-21T10:32:40;11.60;99.90
9915;DHT22;4996;48.746;9.174;2023-11-21T10:35:07;11.50;99.90
9915;DHT22;4996;48.746;9.174;2023-11-21T10:37:41;11.60;99.90
9915;DHT22;4996;48.746;9.174;2023-11-21T10:40:09;11.50;99.90
9915;DHT22;4996;48.746;9.174;2023-11-21T10:42:38;11.30;99.90
9915;DHT22;4996;48.746;9.174;2023-11-21T10:45:05;11.20;99.90
9915;DHT22;4996;48.746;9.174;2023-11-21T10:47:42;11.10;99.90
9915;DHT22;4996;48.746;9.174;2023-11-21T10:50:09;10.80;99.90
9915;DHT22;4996;48.746;9.174;2023-11-21T10:52:40;10.80;99.90
9915;DHT22;4996;48.746;9.174;2023-11-21T10:55:18;10.90;99.90
9915;DHT22;4996;48.746;9.174;2023-11-21T10:57:48;10.90;99.90
9915;DHT22;4996;48.746;9.174;2023-11-21T11:00:16;10.80;99.90
9915;DHT22;4996;48.746;9.174;2023-11-21T11:02:44;10.80;99.90
9915;DHT22;4996;48.746;9.174;2023-11-21T11:05:13;10.80;99.90
9915;DHT22;4996;48.746;9.174;2023-11-21T11:07:41;10.80;99.90
9915;DHT22;4996;48.746;9.174;2023-11-21T11:10:09;10.90;99.90
9915;DHT22;4996;48.746;9.174;2023-11-21T11:12:41;10.90;99.90
9915;DHT22;4996;48.746;9.174;2023-11-21T11:15:08;11.10;99.90
9915;DHT22;4996;48.746;9.174;2023-11-21T11:17:37;11.20;99.90
9915;DHT22;4996;48.746;9.174;2023-11-21T11:20:04;11.20;99.90
9915;DHT22;4996;48.746;9.174;2023-11-21T11:22:46;11.30;99.90
9915;DHT22;4996;48.746;9.174;2023-11-21T11:28:00;11.40;99.90
9915;DHT22;4996;48.746;9.174;2023-11-21T11:33:39;11.40;99.90
9915;DHT22;4996;48.746;9.174;2023-11-21T11:38:36;11.50;99.90
9915;DHT22;4996;48.746;9.174;2023-11-21T11:41:03;11.40;99.90
9915;DHT22;4996;48.746;9.174;2023-11-21T11:43:29;11.20;99.90
9915;DHT22;4996;48.746;9.174;2023-11-21T11:45:57;11.30;99.90
9915;DHT22;4996;48.746;9.174;2023-11-21T11:48:24;11.10;99.90
9915;DHT22;4996;48.746;9.174;2023-11-21T11:51:10;11.30;99.90
9915;DHT22;4996;48.746;9.174;2023-11-21T11:53:41;11.20;99.90
9915;DHT22;4996;48.746;9.174;2023-11-21T11:56:32;11.20;99.90
9915;DHT22;4996;48.746;9.174;2023-11-21T11:59:01;11.20;99.90
9915;DHT22;4996;48.746;9.174;2023-11-21T12:01:33;11.30;99.90
9915;DHT22;4996;48.746;9.174;2023-11-21T12:06:41;11.40;99.90
9915;DHT22;4996;48.746;9.174;2023-11-21T12:09:07;11.40;99.90
9915;DHT22;4996;48.746;9.174;2023-11-21T12:11:32;11.40;99.90
9915;DHT22;4996;48.746;9.174;2023-11-21T12:13:59;11.40;99.90
9915;DHT22;4996;48.746;9.174;2023-11-21T12:16:25;11.40;99.90
9915;DHT22;4996;48.746;9.174;2023-11-21T12:18:53;11.50;99.90
9915;DHT22;4996;48.746;9.174;2023-11-21T12:21:20;11.60;99.90
9915;DHT22;4996;48.746;9.174;2023-11-21T12:23:45;11.50;99.90
9915;DHT22;4996;48.746;9.174;2023-11-21T12:26:13;11.40;99.90
9915;DHT22;4996;48.746;9.174;2023-11-21T12:28:39;11.40;99.90
9915;DHT22;4996;48.746;9.174;2023-11-21T12:31:04;11.40;99.90
9915;DHT22;4996;48.746;9.174;2023-11-21T12:33:35;11.40;99.90
9915;DHT22;4996;48.746;9.174;2023-11-21T12:36:00;11.50;99.90
9915;DHT22;4996;48.746;9.174;2023-11-21T12:38:34;11.50;99.90
9915;DHT22;4996;48.746;9.174;2023-11-21T12:41:00;11.60;99.90
9915;DHT22;4996;48.746;9.174;2023-11-21T12:43:26;11.60;99.90
9915;DHT22;4996;48.746;9.174;2023-11-21T12:46:07;11.70;99.90
9915;DHT22;4996;48.746;9.174;2023-11-21T12:48:37;11.70;99.90
9915;DHT22;4996;48.746;9.174;2023-11-21T12:51:05;11.70;99.90
9915;DHT22;4996;48.746;9.174;2023-11-21T12:53:32;11.60;99.90
9915;DHT22;4996;48.746;9.174;2023-11-21T12:56:05;11.60;99.90
9915;DHT22;4996;48.746;9.174;2023-11-21T12:58:31;11.50;99.90
9915;DHT22;4996;48.746;9.174;2023-11-21T13:00:59;11.50;99.90
9915;DHT22;4996;48.746;9.174;2023-11-21T13:03:25;11.50;99.90
9915;DHT22;4996;48.746;9.174;2023-11-21T13:05:51;11.40;99.90
9915;DHT22;4996;48.746;9.174;2023-11-21T13:08:20;11.40;99.90
9915;DHT22;4996;48.746;9.174;2023-11-21T13:10:49;11.30;99.90
9915;DHT22;4996;48.746;9.174;2023-11-21T13:13:15;11.10;99.90
9915;DHT22;4996;48.746;9.174;2023-11-21T13:15:50;11.20;99.90
9915;DHT22;4996;48.746;9.174;2023-11-21T13:18:16;11.30;99.90
9915;DHT22;4996;48.746;9.174;2023-11-21T13:20:43;11.30;99.90
9915;DHT22;4996;48.746;9.174;2023-11-21T13:23:09;11.30;99.90
9915;DHT22;4996;48.746;9.174;2023-11-21T13:25:38;11.40;99.90
9915;DHT22;4996;48.746;9.174;2023-11-21T13:28:04;11.40;99.90
9915;DHT22;4996;48.746;9.174;2023-11-21T13:30:30;11.30;99.90
9915;DHT22;4996;48.746;9.174;2023-11-21T13:33:00;11.30;99.90
9915;DHT22;4996;48.746;9.174;2023-11-21T13:35:37;10.70;99.90
9915;DHT22;4996;48.746;9.174;2023-11-21T13:38:08;10.40;99.90
9915;DHT22;4996;48.746;9.174;2023-11-21T13:40:35;10.30;99.90
9915;DHT22;4996;48.746;9.174;2023-11-21T13:43:15;10.00;99.90
9915;DHT22;4996;48.746;9.174;2023-11-21T13:45:41;10.00;99.90
9915;DHT22;4996;48.746;9.174;2023-11-21T13:48:07;9.90;99.90
9915;DHT22;4996;48.746;9.174;2023-11-21T13:50:39;9.80;99.90
9915;DHT22;4996;48.746;9.174;2023-11-21T13:53:10;9.60;99.90
9915;DHT22;4996;48.746;9.174;2023-11-21T13:55:54;9.70;99.90
9915;DHT22;4996;48.746;9.174;2023-11-21T13:58:20;9.80;99.90
9915;DHT22;4996;48.746;9.174;2023-11-21T14:01:05;9.70;99.90
9915;DHT22;4996;48.746;9.174;2023-11-21T14:03:31;9.60;99.90
9915;DHT22;4996;48.746;9.174;2023-11-21T14:06:17;9.60;99.90
9915;DHT22;4996;48.746;9.174;2023-11-21T14:08:50;9.70;99.90
9915;DHT22;4996;48.746;9.174;2023-11-21T14:11:15;9.70;99.90
9915;DHT22;4996;48.746;9.174;2023-11-21T14:13:43;9.80;99.90
9915;DHT22;4996;48.746;9.174;2023-11-21T14:16:13;9.80;99.90
9915;DHT22;4996;48.746;9.174;2023-11-21T14:18:39;10.10;99.90
9915;DHT22;4996;48.746;9.174;2023-11-21T14:21:18;9.90;99.90
9915;DHT22;4996;48.746;9.174;2023-11-21T14:23:43;9.90;99.90
9915;DHT22;4996;48.746;9.174;2023-11-21T14:26:11;9.90;99.90
9915;DHT22;4996;48.746;9.174;2023-11-21T14:28:39;10.00;99.90
9915;DHT22;4996;48.746;9.174;2023-11-21T14:31:05;10.00;99.90
9915;DHT22;4996;48.746;9.174;2023-11-21T14:33:30;10.10;99.90
9915;DHT22;4996;48.746;9.174;2023-11-21T14:35:56;10.10;99.90
9915;DHT22;4996;48.746;9.174;2023-11-21T14:38:23;9.90;99.90
9915;DHT22;4996;48.746;9.174;2023-11-21T14:40:48;10.20;99.90
9915;DHT22;4996;48.746;9.174;2023-11-21T14:43:14;10.30;99.90
9915;DHT22;4996;48.746;9.174;2023-11-21T14:45:41;10.20;99.90
9915;DHT22;4996;48.746;9.174;2023-11-21T14:48:06;10.20;99.90
9915;DHT22;4996;48.746;9.174;2023-11-21T14:50:37;10.20;99.90
9915;DHT22;4996;48.746;9.174;2023-11-21T14:53:12;10.20;99.90
9915;DHT22;4996;48.746;9.174;2023-11-21T14:55:39;10.20;99.90
9915;DHT22;4996;48.746;9.174;2023-11-21T14:58:17;10.10;99.90
9915;DHT22;4996;48.746;9.174;2023-11-21T15:00:56;10.20;99.90
9915;DHT22;4996;48.746;9.174;2023-11-21T15:03:27;9.80;99.90
9915;DHT22;4996;48.746;9.174;2023-11-21T15:05:56;9.90;99.90
9915;DHT22;4996;48.746;9.174;2023-11-21T15:08:22;9.90;99.90
9915;DHT22;4996;48.746;9.174;2023-11-21T15:10:55;9.80;99.90
9915;DHT22;4996;48.746;9.174;2023-11-21T15:13:21;9.70;99.90
9915;DHT22;4996;48.746;9.174;2023-11-21T15:15:51;9.60;99.90
9915;DHT22;4996;48.746;9.174;2023-11-21T15:18:20;9.60;99.90
9915;DHT22;4996;48.746;9.174;2023-11-21T15:20:46;9.80;99.90
9915;DHT22;4996;48.746;9.174;2023-11-21T15:23:11;9.90;99.90
9915;DHT22;4996;48.746;9.174;2023-11-21T15:25:42;9.70;99.90
9915;DHT22;4996;48.746;9.174;2023-11-21T15:28:07;9.60;99.90
9915;DHT22;4996;48.746;9.174;2023-11-21T15:30:33;9.60;99.90
9915;DHT22;4996;48.746;9.174;2023-11-21T15:32:59;9.70;99.90
9915;DHT22;4996;48.746;9.174;2023-11-21T15:35:24;9.70;99.90
9915;DHT22;4996;48.746;9.174;2023-11-21T15:37:50;9.80;99.90
9915;DHT22;4996;48.746;9.174;2023-11-21T15:40:16;9.80;99.90
9915;DHT22;4996;48.746;9.174;2023-11-21T15:42:42;10.00;99.90
9915;DHT22;4996;48.746;9.174;2023-11-21T15:45:09;9.70;99.90
9915;DHT22;4996;48.746;9.174;2023-11-21T15:47:35;9.60;99.90
9915;DHT22;4996;48.746;9.174;2023-11-21T15:50:03;9.60;99.90
9915;DHT22;4996;48.746;9.174;2023-11-21T15:52:33;9.80;99.90
9915;DHT22;4996;48.746;9.174;2023-11-21T15:54:59;9.90;99.90
9915;DHT22;4996;48.746;9.174;2023-11-21T15:57:25;10.00;99.90
9915;DHT22;4996;48.746;9.174;2023-11-21T15:59:50;9.90;99.90
9915;DHT22;4996;48.746;9.174;2023-11-21T16:02:16;10.10;99.90
9915;DHT22;4996;48.746;9.174;2023-11-21T16:04:41;10.20;99.90
9915;DHT22;4996;48.746;9.174;2023-11-21T16:07:08;10.00;99.90
9915;DHT22;4996;48.746;9.174;2023-11-21T16:09:35;10.00;99.90
9915;DHT22;4996;48.746;9.174;2023-11-21T16:12:04;10.10;99.90
9915;DHT22;4996;48.746;9.174;2023-11-21T16:14:32;10.00;99.90
9915;DHT22;4996;48.746;9.174;2023-11-21T16:17:02;10.10;99.90
9915;DHT22;4996;48.746;9.174;2023-11-21T16:19:28;10.00;99.90
9915;DHT22;4996;48.746;9.174;2023-11-21T16:21:54;10.10;99.90
9915;DHT22;4996;48.746;9.174;2023-11-21T16:24:19;10.10;99.90
9915;DHT22;4996;48.746;9.174;2023-11-21T16:26:46;10.10;99.90